createdAt,value
2023-01-13T00:00:18.847Z,35.67
2023-01-13T00:02:46.561Z,29.42
2023-01-13T00:05:14.488Z,36.80
2023-01-13T00:07:43.199Z,37.60
2023-01-13T00:10:12.171Z,36.78
2023-01-13T00:12:40.790Z,32.30
2023-01-13T00:15:09.837Z,37.27
2023-01-13T00:17:39.112Z,33.13
2023-01-13T00:20:07.840Z,36.88
2023-01-13T00:22:35.775Z,32.70
2023-01-13T00:25:04.289Z,32.03
2023-01-13T00:27:32.074Z,31.13
2023-01-13T00:30:00.025Z,30.37
2023-01-13T00:32:28.055Z,33.00
2023-01-13T00:34:56.982Z,28.35
2023-01-13T00:37:24.604Z,31.10
2023-01-13T00:39:52.261Z,28.85
2023-01-13T00:42:37.988Z,34.15
2023-01-13T00:45:06.615Z,34.80
2023-01-13T00:47:34.195Z,28.77
2023-01-13T00:50:03.133Z,32.33
2023-01-13T00:52:32.830Z,31.90
2023-01-13T00:55:00.814Z,33.50
2023-01-13T00:57:28.404Z,33.65
2023-01-13T00:59:56.055Z,33.20
2023-01-13T01:02:23.707Z,31.25
2023-01-13T01:04:51.333Z,36.85
2023-01-13T01:07:20.237Z,30.42
2023-01-13T01:09:47.819Z,34.08
2023-01-13T01:12:15.384Z,38.00
2023-01-13T01:14:42.965Z,33.25
2023-01-13T01:17:10.538Z,29.05
2023-01-13T01:19:38.740Z,31.02
2023-01-13T01:22:06.333Z,31.10
2023-01-13T01:24:35.232Z,36.65
2023-01-13T01:27:02.862Z,36.58
2023-01-13T01:29:30.556Z,31.75
2023-01-13T01:31:58.719Z,35.90
2023-01-13T01:34:26.328Z,32.90
2023-01-13T01:36:53.890Z,40.05
2023-01-13T01:39:21.445Z,35.38
2023-01-13T01:42:04.285Z,37.85
2023-01-13T01:44:52.310Z,36.88
2023-01-13T01:47:20.359Z,39.90
2023-01-13T01:49:48.582Z,37.08
2023-01-13T01:52:18.202Z,39.53
2023-01-13T01:54:53.030Z,28.00
2023-01-13T01:57:24.789Z,31.88
2023-01-13T01:59:53.387Z,35.97
2023-01-13T02:02:21.100Z,32.45
2023-01-13T02:04:52.073Z,32.90
2023-01-13T02:07:22.278Z,30.20
2023-01-13T02:09:50.046Z,31.15
2023-01-13T02:12:30.221Z,25.55
2023-01-13T02:15:01.365Z,35.53
2023-01-13T02:17:39.688Z,30.33
2023-01-13T02:20:36.754Z,28.73
2023-01-13T02:23:57.242Z,30.30
2023-01-13T02:27:02.193Z,26.70
2023-01-13T02:30:05.078Z,30.90
2023-01-13T02:32:36.485Z,31.63
2023-01-13T02:35:07.665Z,31.02
2023-01-13T02:37:38.439Z,27.83
2023-01-13T02:40:10.997Z,28.83
2023-01-13T02:43:04.742Z,27.20
2023-01-13T02:45:39.156Z,24.13
2023-01-13T02:48:09.243Z,28.08
2023-01-13T02:50:39.753Z,27.35
2023-01-13T02:53:10.682Z,24.40
2023-01-13T02:55:41.041Z,23.02
2023-01-13T02:58:10.689Z,28.58
2023-01-13T03:00:40.333Z,27.77
2023-01-13T03:03:07.924Z,27.75
2023-01-13T03:05:36.573Z,31.85
2023-01-13T03:08:24.233Z,26.88
2023-01-13T03:11:00.295Z,28.27
2023-01-13T03:13:47.186Z,29.23
2023-01-13T03:16:21.902Z,26.10
2023-01-13T03:18:54.342Z,28.48
2023-01-13T03:21:25.794Z,26.27
2023-01-13T03:23:56.710Z,27.45
2023-01-13T03:26:28.838Z,21.27
2023-01-13T03:29:00.773Z,25.27
2023-01-13T03:31:31.800Z,25.33
2023-01-13T03:34:03.249Z,27.30
2023-01-13T03:36:31.747Z,26.30
2023-01-13T03:39:02.691Z,25.23
2023-01-13T03:41:33.944Z,26.75
2023-01-13T03:44:22.504Z,23.77
2023-01-13T03:47:00.590Z,24.07
2023-01-13T03:49:31.023Z,24.15
2023-01-13T03:52:03.633Z,25.55
2023-01-13T03:54:33.456Z,24.83
2023-01-13T03:57:05.000Z,24.45
2023-01-13T03:59:37.053Z,28.13
2023-01-13T04:02:09.431Z,25.63
2023-01-13T04:04:40.222Z,21.80
2023-01-13T04:07:14.751Z,26.05
2023-01-13T04:09:49.945Z,29.00
2023-01-13T04:12:22.854Z,21.80
2023-01-13T04:14:50.910Z,23.60
2023-01-13T04:17:20.025Z,26.37
2023-01-13T04:19:47.809Z,23.88
2023-01-13T04:22:15.503Z,22.77
2023-01-13T04:24:43.062Z,23.98
2023-01-13T04:27:10.674Z,21.15
2023-01-13T04:29:38.274Z,27.10
2023-01-13T04:32:05.976Z,24.38
2023-01-13T04:34:34.919Z,24.92
2023-01-13T04:37:02.834Z,21.17
2023-01-13T04:39:30.416Z,23.88
2023-01-13T04:42:02.378Z,21.27
2023-01-13T04:44:31.726Z,22.33
2023-01-13T04:46:59.436Z,21.23
2023-01-13T04:49:26.973Z,22.02
2023-01-13T04:51:55.899Z,21.92
2023-01-13T04:54:23.498Z,21.15
2023-01-13T04:56:51.131Z,22.23
2023-01-13T04:59:18.748Z,22.02
2023-01-13T05:01:46.426Z,26.27
2023-01-13T05:04:15.497Z,24.25
2023-01-13T05:06:43.184Z,26.67
2023-01-13T05:09:13.377Z,21.02
2023-01-13T05:11:58.496Z,24.70
2023-01-13T05:14:43.766Z,23.60
2023-01-13T05:17:12.072Z,27.17
2023-01-13T05:19:40.725Z,24.35
2023-01-13T05:22:25.652Z,23.40
2023-01-13T05:25:12.314Z,26.90
2023-01-13T05:27:39.853Z,27.25
2023-01-13T05:30:09.576Z,25.58
2023-01-13T05:32:37.143Z,21.63
2023-01-13T05:35:05.116Z,20.70
2023-01-13T05:37:32.697Z,20.25
2023-01-13T05:40:19.300Z,23.67
2023-01-13T05:43:04.652Z,20.65
2023-01-13T05:45:32.899Z,23.25
2023-01-13T05:48:00.580Z,28.35
2023-01-13T05:50:28.231Z,22.95
2023-01-13T05:52:55.843Z,22.65
2023-01-13T05:55:24.825Z,29.98
2023-01-13T05:57:52.437Z,25.98
2023-01-13T06:00:21.036Z,25.98
2023-01-13T06:02:49.158Z,25.17
2023-01-13T06:05:16.808Z,26.93
2023-01-13T06:07:44.403Z,27.02
2023-01-13T06:10:12.656Z,28.80
2023-01-13T06:12:41.576Z,26.00
2023-01-13T06:15:09.788Z,30.02
2023-01-13T06:17:37.342Z,28.17
2023-01-13T06:20:08.205Z,21.42
2023-01-13T06:22:39.880Z,24.42
2023-01-13T06:25:11.060Z,27.45
2023-01-13T06:27:38.915Z,28.85
2023-01-13T06:30:09.564Z,31.92
2023-01-13T06:32:40.726Z,30.55
2023-01-13T06:35:11.786Z,35.28
2023-01-13T06:37:39.601Z,28.52
2023-01-13T06:40:08.214Z,20.45
2023-01-13T06:42:55.151Z,25.65
2023-01-13T06:45:24.452Z,29.33
2023-01-13T06:47:52.525Z,20.58
2023-01-13T06:50:20.131Z,23.02
2023-01-13T06:52:47.765Z,22.88
2023-01-13T06:55:15.413Z,26.48
2023-01-13T06:57:52.731Z,23.55
2023-01-13T07:00:21.467Z,22.25
2023-01-13T07:02:50.618Z,26.42
2023-01-13T07:05:20.099Z,15.73
2023-01-13T07:07:47.726Z,26.15
2023-01-13T07:10:22.232Z,27.35
2023-01-13T07:13:08.058Z,25.48
2023-01-13T07:15:35.962Z,24.48
2023-01-13T07:18:05.058Z,26.67
2023-01-13T07:20:32.640Z,25.33
2023-01-13T07:23:00.178Z,26.92
2023-01-13T07:25:27.852Z,29.95
2023-01-13T07:27:58.466Z,24.05
2023-01-13T07:30:26.089Z,28.48
2023-01-13T07:32:53.679Z,24.17
2023-01-13T07:35:23.431Z,22.98
2023-01-13T07:40:18.832Z,21.63
2023-01-13T07:43:03.920Z,24.52
2023-01-13T07:45:31.518Z,30.98
2023-01-13T07:47:59.132Z,28.17
2023-01-13T07:50:28.067Z,26.17
2023-01-13T07:52:58.679Z,25.95
2023-01-13T07:55:26.373Z,25.10
2023-01-13T07:57:53.929Z,20.30
2023-01-13T08:00:22.428Z,22.63
2023-01-13T08:02:50.054Z,25.05
2023-01-13T08:05:18.168Z,19.13
2023-01-13T08:07:47.099Z,26.17
2023-01-13T08:10:14.716Z,20.30
2023-01-13T08:12:59.863Z,27.77
2023-01-13T08:15:27.459Z,24.42
2023-01-13T08:17:55.040Z,25.65
2023-01-13T08:20:22.616Z,18.60
2023-01-13T08:22:51.502Z,20.02
2023-01-13T08:25:19.177Z,27.23
2023-01-13T08:27:46.710Z,18.95
2023-01-13T08:30:14.507Z,26.83
2023-01-13T08:32:44.666Z,25.05
2023-01-13T08:35:12.956Z,20.17
2023-01-13T08:37:40.894Z,24.85
2023-01-13T08:40:11.489Z,17.15
2023-01-13T08:42:39.402Z,19.77
2023-01-13T08:45:08.406Z,19.02
2023-01-13T08:47:36.134Z,23.20
2023-01-13T08:50:03.925Z,19.80
2023-01-13T08:52:31.948Z,18.23
2023-01-13T08:54:59.583Z,23.92
2023-01-13T08:57:28.721Z,18.88
2023-01-13T08:59:56.443Z,19.92
2023-01-13T09:02:25.332Z,17.52
2023-01-13T09:04:53.184Z,18.52
2023-01-13T09:07:21.299Z,22.88
2023-01-13T09:09:48.890Z,21.60
2023-01-13T09:12:34.889Z,15.95
2023-01-13T09:15:06.159Z,13.85
2023-01-13T09:17:33.951Z,16.83
2023-01-13T09:20:01.675Z,18.55
2023-01-13T09:22:29.316Z,18.15
2023-01-13T09:24:57.257Z,20.45
2023-01-13T09:27:25.144Z,19.98
2023-01-13T09:29:52.816Z,14.95
2023-01-13T09:32:21.843Z,21.50
2023-01-13T09:35:00.438Z,13.77
2023-01-13T09:37:29.796Z,14.27
2023-01-13T09:39:57.385Z,13.85
2023-01-13T09:42:51.246Z,15.90
2023-01-13T09:45:21.066Z,22.90
2023-01-13T09:47:55.789Z,17.50
2023-01-13T09:50:30.664Z,19.98
2023-01-13T09:52:58.552Z,17.48
2023-01-13T09:55:30.233Z,15.18
2023-01-13T09:57:57.949Z,18.95
2023-01-13T10:00:28.266Z,19.05
2023-01-13T10:03:10.475Z,19.75
2023-01-13T10:05:39.404Z,16.60
2023-01-13T10:08:12.104Z,18.25
2023-01-13T10:10:48.260Z,21.17
2023-01-13T10:13:20.052Z,20.50
2023-01-13T10:16:07.124Z,20.50
2023-01-13T10:18:42.638Z,20.73
2023-01-13T10:21:21.147Z,19.00
2023-01-13T10:23:55.367Z,16.92
2023-01-13T10:26:36.944Z,16.13
2023-01-13T10:29:04.580Z,16.05
2023-01-13T10:31:32.233Z,21.85
2023-01-13T10:34:03.791Z,16.13
2023-01-13T10:36:31.534Z,18.77
2023-01-13T10:39:08.943Z,17.85
2023-01-13T10:41:37.194Z,16.95
2023-01-13T10:44:09.655Z,18.50
2023-01-13T10:46:52.244Z,10.93
2023-01-13T10:49:30.969Z,14.13
2023-01-13T10:51:58.797Z,13.15
2023-01-13T10:54:26.762Z,16.27
2023-01-13T10:57:16.163Z,18.15
2023-01-13T10:59:43.970Z,12.63
2023-01-13T11:02:26.481Z,13.82
2023-01-13T11:05:13.844Z,16.00
2023-01-13T11:07:42.936Z,14.02
2023-01-13T11:10:19.726Z,13.77
2023-01-13T11:12:53.964Z,11.75
2023-01-13T11:15:23.914Z,16.40
2023-01-13T11:18:00.405Z,18.23
2023-01-13T11:20:33.735Z,18.80
2023-01-13T11:23:04.552Z,17.73
2023-01-13T11:25:41.819Z,21.20
2023-01-13T11:28:20.553Z,15.05
2023-01-13T11:30:51.369Z,16.83
2023-01-13T11:33:28.565Z,14.93
2023-01-13T11:36:04.516Z,16.00
2023-01-13T11:38:34.319Z,20.83
2023-01-13T11:41:08.133Z,14.75
2023-01-13T13:48:20.745Z,14.18
2023-01-13T13:50:49.105Z,12.70
2023-01-13T13:53:18.291Z,16.20
2023-01-13T13:55:54.380Z,14.30
2023-01-13T13:58:26.201Z,10.65
2023-01-13T14:00:54.631Z,13.65
2023-01-13T14:03:26.554Z,15.35
2023-01-13T14:05:56.718Z,12.07
2023-01-13T14:08:25.085Z,14.95
2023-01-13T14:10:52.905Z,13.38
2023-01-13T14:13:24.121Z,13.43
2023-01-13T14:15:57.197Z,15.95
2023-01-13T14:18:25.982Z,12.37
2023-01-13T14:20:55.429Z,12.60
2023-01-13T14:23:26.499Z,13.77
2023-01-13T14:25:54.516Z,12.43
2023-01-13T14:28:26.557Z,10.73
2023-01-13T14:30:54.825Z,11.57
2023-01-13T14:33:24.882Z,13.15
2023-01-13T14:36:06.923Z,11.45
2023-01-13T14:38:34.581Z,13.57
2023-01-13T14:41:11.404Z,12.52
2023-01-13T14:43:45.405Z,19.52
2023-01-13T14:46:13.706Z,13.65
2023-01-13T14:48:43.262Z,12.68
2023-01-13T14:51:12.774Z,15.82
2023-01-13T14:53:45.044Z,12.13
2023-01-13T14:56:38.480Z,11.85
2023-01-13T14:59:48.687Z,14.32
2023-01-13T15:02:38.094Z,12.82
2023-01-13T15:05:39.861Z,14.43
2023-01-13T15:08:36.017Z,17.00
2023-01-13T15:11:05.309Z,14.07
2023-01-13T15:13:37.397Z,13.50
2023-01-13T15:16:08.376Z,16.90
2023-01-13T15:18:40.077Z,14.43
2023-01-13T15:21:08.151Z,11.27
2023-01-13T15:23:35.865Z,15.90
2023-01-13T15:26:03.835Z,13.60
2023-01-13T15:28:32.909Z,14.70
2023-01-13T15:31:03.545Z,12.57
2023-01-13T15:33:32.590Z,11.00
2023-01-13T15:36:01.763Z,15.83
2023-01-13T15:38:29.422Z,13.35
2023-01-13T15:40:57.050Z,13.07
2023-01-13T15:43:43.135Z,16.33
2023-01-13T15:46:31.468Z,15.27
2023-01-13T15:49:02.010Z,11.48
2023-01-13T15:51:29.635Z,14.55
2023-01-13T15:54:00.555Z,15.10
2023-01-13T15:56:28.182Z,15.20
2023-01-13T15:58:55.984Z,16.37
2023-01-13T16:01:23.870Z,13.10
2023-01-13T16:03:52.218Z,19.25
2023-01-13T16:06:22.899Z,14.80
2023-01-13T16:08:50.538Z,15.93
2023-01-13T16:11:18.395Z,15.82
2023-01-13T16:13:46.121Z,11.75
2023-01-13T16:16:18.777Z,14.73
2023-01-13T16:18:46.805Z,14.95
2023-01-13T16:21:14.895Z,19.98
2023-01-13T16:23:43.916Z,15.80
2023-01-13T16:26:19.291Z,16.27
2023-01-13T16:28:46.998Z,14.80
2023-01-13T16:31:22.851Z,14.50
2023-01-13T16:33:50.626Z,18.88
2023-01-13T16:36:20.161Z,15.20
2023-01-13T16:38:50.143Z,16.08
2023-01-13T16:41:18.159Z,14.23
2023-01-13T16:43:46.001Z,15.10
2023-01-13T16:46:25.315Z,12.32
2023-01-13T16:48:54.169Z,15.20
2023-01-13T16:51:22.305Z,15.77
2023-01-13T16:53:51.725Z,13.80
2023-01-13T16:56:24.351Z,16.25
2023-01-13T16:58:52.749Z,16.08
2023-01-13T17:01:23.123Z,13.68
2023-01-13T17:03:51.375Z,16.92
2023-01-13T17:06:21.597Z,16.15
2023-01-13T17:08:49.303Z,13.85
2023-01-13T17:11:18.307Z,14.95
2023-01-13T17:13:45.974Z,18.33
2023-01-13T17:16:21.928Z,16.55
2023-01-13T17:18:49.801Z,18.05
2023-01-13T17:21:17.856Z,17.13
2023-01-13T17:23:46.085Z,16.88
2023-01-13T17:26:28.949Z,14.37
2023-01-13T17:28:56.859Z,14.95
2023-01-13T17:31:24.527Z,15.18
2023-01-13T17:33:52.161Z,12.05
2023-01-13T17:36:19.832Z,11.33
2023-01-13T17:38:47.459Z,11.68
2023-01-13T17:41:15.155Z,13.55
2023-01-13T17:43:44.135Z,15.32
2023-01-13T17:46:12.650Z,15.07
2023-01-13T17:48:40.341Z,12.65
2023-01-13T17:51:10.032Z,10.75
2023-01-13T17:53:40.752Z,16.00
2023-01-13T17:56:09.521Z,13.75
2023-01-13T17:58:37.495Z,9.68
2023-01-13T18:01:10.544Z,9.38
2023-01-13T18:03:38.775Z,14.65
2023-01-13T18:06:07.690Z,14.18
2023-01-13T18:08:35.294Z,18.67
2023-01-13T18:11:03.357Z,15.38
2023-01-13T18:13:31.342Z,16.30
2023-01-13T18:16:04.573Z,14.73
2023-01-13T18:18:34.376Z,14.98
2023-01-13T18:21:19.886Z,12.90
2023-01-13T18:24:10.478Z,14.27
2023-01-13T18:26:55.420Z,10.93
2023-01-13T18:29:23.313Z,12.87
2023-01-13T18:31:52.421Z,10.43
2023-01-13T18:34:21.697Z,13.98
2023-01-13T18:36:49.386Z,11.30
2023-01-13T18:39:17.965Z,11.43
2023-01-13T18:42:03.219Z,13.57
2023-01-13T18:44:30.813Z,12.77
2023-01-13T18:46:58.517Z,11.68
2023-01-13T18:49:28.035Z,10.57
2023-01-13T18:51:55.701Z,11.67
2023-01-13T18:54:23.525Z,14.60
2023-01-13T18:56:51.101Z,13.13
2023-01-13T18:59:18.920Z,11.27
2023-01-13T19:01:46.616Z,11.50
2023-01-13T19:04:16.184Z,15.30
2023-01-13T19:06:49.095Z,13.32
2023-01-13T19:09:16.801Z,10.35
2023-01-13T19:11:46.657Z,12.00
2023-01-13T19:14:33.867Z,14.40
2023-01-13T19:17:02.288Z,13.93
2023-01-13T19:19:29.932Z,14.35
2023-01-13T19:21:58.996Z,13.60
2023-01-13T19:24:26.948Z,10.93
2023-01-13T19:26:55.296Z,16.42
2023-01-13T19:29:23.084Z,13.65
2023-01-13T19:31:50.740Z,11.40
2023-01-13T19:34:18.951Z,12.80
2023-01-13T19:36:46.575Z,13.88
2023-01-13T19:39:15.534Z,16.05
2023-01-13T19:42:00.756Z,14.35
2023-01-13T19:44:57.535Z,15.17
2023-01-13T19:47:25.115Z,12.18
2023-01-13T19:49:52.736Z,11.98
2023-01-13T19:52:20.572Z,16.30
2023-01-13T19:54:49.765Z,16.00
2023-01-13T19:57:17.429Z,14.18
2023-01-13T19:59:45.110Z,18.25
2023-01-13T20:02:15.754Z,17.92
2023-01-13T20:04:45.046Z,15.15
2023-01-13T20:07:14.557Z,10.95
2023-01-13T20:09:44.250Z,12.27
2023-01-13T20:12:13.926Z,13.05
2023-01-13T20:14:41.795Z,15.45
2023-01-13T20:17:09.786Z,20.50
2023-01-13T20:19:37.527Z,16.90
2023-01-13T20:22:05.161Z,13.32
2023-01-13T20:24:32.880Z,15.20
2023-01-13T20:27:01.077Z,15.40
2023-01-13T20:29:30.169Z,15.10
2023-01-13T20:31:57.830Z,13.38
2023-01-13T20:34:26.037Z,16.33
2023-01-13T20:36:54.241Z,12.52
2023-01-13T20:39:23.460Z,14.63
2023-01-13T20:42:08.412Z,17.67
2023-01-13T20:44:37.448Z,14.07
2023-01-13T20:47:05.533Z,14.18
2023-01-13T20:49:34.305Z,15.75
2023-01-13T20:52:03.516Z,14.43
2023-01-13T20:54:31.185Z,15.60
2023-01-13T20:57:00.440Z,14.25
2023-01-13T20:59:28.085Z,18.02
2023-01-13T21:01:57.069Z,11.70
2023-01-13T21:04:24.729Z,14.38
2023-01-13T21:06:52.542Z,18.38
2023-01-13T21:09:20.388Z,14.32
2023-01-13T21:12:05.450Z,13.02
2023-01-13T21:14:50.929Z,13.60
2023-01-13T21:17:34.065Z,13.63
2023-01-13T21:20:04.081Z,17.33
2023-01-13T21:22:32.057Z,11.90
2023-01-13T21:24:59.798Z,13.45
2023-01-13T21:27:27.447Z,13.43
2023-01-13T21:29:55.078Z,15.65
2023-01-13T21:32:24.185Z,13.70
2023-01-13T21:34:51.836Z,16.15
2023-01-13T21:37:19.446Z,16.02
2023-01-13T21:39:47.124Z,14.82
2023-01-13T21:42:34.655Z,16.27
2023-01-13T21:45:19.916Z,14.38
2023-01-13T21:47:52.056Z,14.77
2023-01-13T21:50:21.151Z,13.27
2023-01-13T21:52:50.200Z,19.17
2023-01-13T21:55:20.381Z,14.37
2023-01-13T21:57:48.478Z,15.20
2023-01-13T22:00:17.362Z,15.43
2023-01-13T22:02:45.309Z,18.80
2023-01-13T22:05:15.758Z,14.50
2023-01-13T22:07:43.805Z,16.20
2023-01-13T22:10:13.127Z,16.10
2023-01-13T22:12:41.073Z,16.60
2023-01-13T22:15:10.511Z,16.37
2023-01-13T22:17:38.193Z,14.27
2023-01-13T22:20:07.041Z,14.40
2023-01-13T22:22:36.977Z,17.17
2023-01-13T22:25:06.923Z,18.27
2023-01-13T22:27:39.398Z,17.63
2023-01-13T22:30:08.462Z,18.60
2023-01-13T22:32:37.711Z,16.17
2023-01-13T22:35:06.473Z,17.13
2023-01-13T22:37:34.183Z,12.68
2023-01-13T22:40:03.291Z,9.57
2023-01-13T22:42:30.940Z,10.73
2023-01-13T22:44:58.755Z,15.40
2023-01-13T22:47:26.634Z,16.42
2023-01-13T22:49:54.356Z,13.93
2023-01-13T22:52:22.604Z,20.25
2023-01-13T22:54:50.229Z,14.77
2023-01-13T22:57:19.204Z,16.08
2023-01-13T22:59:46.939Z,18.80
2023-01-13T23:02:14.596Z,13.27
2023-01-13T23:04:42.262Z,15.93
2023-01-13T23:07:10.051Z,15.45
2023-01-13T23:09:37.809Z,14.85
2023-01-13T23:12:06.007Z,16.88
2023-01-13T23:14:35.107Z,15.98
2023-01-13T23:17:02.727Z,17.77
2023-01-13T23:19:30.431Z,19.83
2023-01-13T23:21:58.006Z,16.75
2023-01-13T23:24:27.972Z,16.58
2023-01-13T23:26:55.788Z,16.85
2023-01-13T23:29:23.443Z,15.20
2023-01-13T23:31:52.480Z,17.95
2023-01-13T23:34:20.065Z,15.43
2023-01-13T23:36:47.817Z,19.58
2023-01-13T23:39:15.581Z,13.90
2023-01-13T23:41:43.230Z,15.45
2023-01-13T23:44:11.048Z,15.98
2023-01-13T23:46:38.725Z,16.38
2023-01-13T23:49:07.820Z,15.50
2023-01-13T23:51:35.487Z,16.42
2023-01-13T23:54:03.211Z,15.02
2023-01-13T23:56:31.960Z,15.95
2023-01-13T23:59:00.189Z,18.80
